createdAt,value
2023-03-25T00:00:01.604Z,100244.70
2023-03-25T00:03:07.567Z,100244.90
2023-03-25T00:06:14.702Z,100251.45
2023-03-25T00:09:21.094Z,100251.13
2023-03-25T00:12:27.670Z,100246.15
2023-03-25T00:15:33.691Z,100247.17
2023-03-25T00:18:44.372Z,100248.23
2023-03-25T00:21:56.381Z,100254.23
2023-03-25T00:25:03.647Z,100252.03
2023-03-25T00:28:08.597Z,100250.30
2023-03-25T00:31:15.970Z,100261.29
2023-03-25T00:34:23.972Z,100241.95
2023-03-25T00:37:32.026Z,100242.13
2023-03-25T00:40:40.186Z,100244.02
2023-03-25T00:43:47.408Z,100235.31
2023-03-25T00:46:52.837Z,100233.42
2023-03-25T00:50:00.769Z,100248.20
2023-03-25T00:53:07.542Z,100248.05
2023-03-25T00:56:14.287Z,100252.70
2023-03-25T00:59:20.796Z,100243.30
2023-03-25T01:02:27.980Z,100248.43
2023-03-25T01:05:35.475Z,100237.45
2023-03-25T01:08:42.315Z,100237.84
2023-03-25T01:11:48.492Z,100241.28
2023-03-25T01:14:54.583Z,100239.27
2023-03-25T01:18:00.617Z,100250.77
2023-03-25T01:21:07.442Z,100256.77
2023-03-25T01:24:18.339Z,100250.16
2023-03-25T01:27:23.793Z,100248.30
2023-03-25T01:30:31.427Z,100246.64
2023-03-25T01:33:39.066Z,100246.70
2023-03-25T01:36:48.009Z,100245.05
2023-03-25T01:39:55.561Z,100242.69
2023-03-25T01:43:02.395Z,100235.84
2023-03-25T01:46:08.933Z,100244.27
2023-03-25T01:49:15.863Z,100243.63
2023-03-25T01:52:28.388Z,100236.13
2023-03-25T01:55:34.856Z,100230.19
2023-03-25T01:58:42.651Z,100227.16
2023-03-25T02:01:48.725Z,100232.66
2023-03-25T02:05:17.477Z,100228.61
2023-03-25T02:08:24.943Z,100226.94
2023-03-25T02:11:32.923Z,100233.31
2023-03-25T02:14:43.850Z,100231.62
2023-03-25T02:18:04.724Z,100229.38
2023-03-25T02:21:59.290Z,100232.60
2023-03-25T02:25:17.195Z,100226.45
2023-03-25T02:28:48.905Z,100226.27
2023-03-25T02:32:22.325Z,100224.03
2023-03-25T02:35:59.449Z,100218.42
2023-03-25T02:39:08.184Z,100216.02
2023-03-25T02:42:41.633Z,100216.71
2023-03-25T02:45:50.039Z,100221.71
2023-03-25T02:49:17.056Z,100223.45
2023-03-25T02:52:33.668Z,100214.78
2023-03-25T02:55:40.254Z,100217.86
2023-03-25T02:58:45.271Z,100221.70
2023-03-25T03:01:52.684Z,100219.35
2023-03-25T03:05:11.053Z,100220.80
2023-03-25T03:08:49.546Z,100217.74
2023-03-25T03:12:28.575Z,100212.82
2023-03-25T03:15:43.157Z,100222.45
2023-03-25T03:19:08.725Z,100213.06
2023-03-25T03:22:19.613Z,100207.96
2023-03-25T03:25:38.676Z,100214.31
2023-03-25T03:28:54.217Z,100220.84
2023-03-25T03:32:23.590Z,100224.09
2023-03-25T03:35:44.759Z,100220.67
2023-03-25T03:39:00.620Z,100219.66
2023-03-25T03:42:10.969Z,100215.97
2023-03-25T03:45:24.030Z,100214.80
2023-03-25T03:48:37.670Z,100204.39
2023-03-25T03:51:54.664Z,100212.46
2023-03-25T03:55:07.255Z,100217.77
2023-03-25T03:58:16.647Z,100212.66
2023-03-25T04:01:37.709Z,100220.55
2023-03-25T04:04:45.984Z,100217.30
2023-03-25T04:08:13.965Z,100218.53
2023-03-25T04:11:28.997Z,100210.00
2023-03-25T04:14:35.814Z,100213.75
2023-03-25T04:17:43.458Z,100211.19
2023-03-25T04:20:51.730Z,100211.05
2023-03-25T04:23:58.706Z,100208.31
2023-03-25T04:27:06.170Z,100219.08
2023-03-25T04:30:11.929Z,100210.55
2023-03-25T04:33:18.606Z,100215.48
2023-03-25T04:36:27.110Z,100208.45
2023-03-25T04:39:35.525Z,100210.69
2023-03-25T04:42:44.362Z,100207.27
2023-03-25T04:45:52.216Z,100205.02
2023-03-25T04:49:00.007Z,100204.13
2023-03-25T04:52:11.680Z,100213.87
2023-03-25T04:55:19.562Z,100214.20
2023-03-25T04:58:20.636Z,100211.64
2023-03-25T05:01:08.553Z,100209.55
2023-03-25T05:04:03.326Z,100213.11
2023-03-25T05:06:58.766Z,100211.88
2023-03-25T05:10:06.413Z,100212.17
2023-03-25T05:13:16.479Z,100209.02
2023-03-25T05:16:23.195Z,100209.96
2023-03-25T05:19:30.312Z,100211.25
2023-03-25T05:22:36.419Z,100207.34
2023-03-25T05:25:44.932Z,100208.25
2023-03-25T05:28:51.189Z,100199.90
2023-03-25T05:31:59.728Z,100203.97
2023-03-25T05:35:09.293Z,100203.80
2023-03-25T05:38:22.503Z,100209.56
2023-03-25T05:41:29.874Z,100203.52
2023-03-25T05:44:35.858Z,100212.99
2023-03-25T05:47:45.048Z,100205.98
2023-03-25T05:50:54.599Z,100203.13
2023-03-25T05:54:02.003Z,100208.31
2023-03-25T05:57:07.964Z,100206.42
2023-03-25T06:00:15.755Z,100204.22
2023-03-25T06:03:22.587Z,100201.66
2023-03-25T06:06:31.289Z,100192.77
2023-03-25T06:09:37.720Z,100191.89
2023-03-25T06:12:44.851Z,100193.07
2023-03-25T06:15:51.761Z,100192.70
2023-03-25T06:19:03.220Z,100200.50
2023-03-25T06:22:11.468Z,100186.99
2023-03-25T06:25:17.716Z,100189.31
2023-03-25T06:28:25.310Z,100185.12
2023-03-25T06:31:36.559Z,100190.58
2023-03-25T06:34:43.962Z,100188.19
2023-03-25T06:37:50.794Z,100187.38
2023-03-25T06:41:00.224Z,100189.94
2023-03-25T06:44:07.749Z,100187.83
2023-03-25T06:47:19.960Z,100182.64
2023-03-25T06:50:27.364Z,100178.62
2023-03-25T06:53:34.415Z,100176.82
2023-03-25T06:56:40.642Z,100176.28
2023-03-25T06:59:46.554Z,100172.07
2023-03-25T07:02:54.235Z,100165.97
2023-03-25T07:06:00.057Z,100171.48
2023-03-25T07:09:05.866Z,100169.86
2023-03-25T07:12:13.495Z,100172.83
2023-03-25T07:15:21.534Z,100172.17
2023-03-25T07:18:28.251Z,100167.05
2023-03-25T07:21:34.403Z,100157.55
2023-03-25T07:24:40.517Z,100157.50
2023-03-25T07:27:47.032Z,100161.33
2023-03-25T07:30:46.564Z,100153.56
2023-03-25T07:33:53.592Z,100149.72
2023-03-25T07:36:58.701Z,100153.12
2023-03-25T07:40:03.879Z,100150.88
2023-03-25T07:43:08.620Z,100153.20
2023-03-25T07:46:15.316Z,100148.77
2023-03-25T07:49:21.273Z,100149.70
2023-03-25T07:52:28.151Z,100141.91
2023-03-25T07:55:34.556Z,100145.20
2023-03-25T07:58:40.772Z,100131.93
2023-03-25T08:01:47.134Z,100130.36
2023-03-25T08:04:53.771Z,100127.98
2023-03-25T08:07:59.520Z,100122.05
2023-03-25T08:11:06.306Z,100119.20
2023-03-25T08:14:12.009Z,100119.92
2023-03-25T08:17:21.455Z,100116.59
2023-03-25T08:20:28.629Z,100116.61
2023-03-25T08:23:35.505Z,100107.07
2023-03-25T08:26:42.457Z,100107.34
2023-03-25T08:29:48.017Z,100111.05
2023-03-25T08:32:56.749Z,100108.30
2023-03-25T08:36:03.013Z,100100.78
2023-03-25T08:39:10.479Z,100105.50
2023-03-25T08:42:17.118Z,100097.57
2023-03-25T08:45:24.082Z,100101.17
2023-03-25T08:48:32.455Z,100100.31
2023-03-25T08:51:39.571Z,100098.63
2023-03-25T08:54:45.870Z,100096.09
2023-03-25T08:57:54.562Z,100097.10
2023-03-25T09:01:04.329Z,100100.91
2023-03-25T09:04:09.731Z,100094.97
2023-03-25T09:07:17.329Z,100083.22
2023-03-25T09:10:23.683Z,100085.91
2023-03-25T09:13:29.180Z,100084.70
2023-03-25T09:16:35.206Z,100073.91
2023-03-25T09:19:41.728Z,100078.92
2023-03-25T09:22:48.070Z,100074.76
2023-03-25T09:25:54.132Z,100076.16
2023-03-25T09:29:02.352Z,100068.90
2023-03-25T09:32:09.791Z,100069.91
2023-03-25T09:35:15.356Z,100079.98
2023-03-25T09:38:22.255Z,100069.72
2023-03-25T09:41:57.218Z,100066.22
2023-03-25T09:45:40.403Z,100070.05
2023-03-25T09:49:03.422Z,100063.83
2023-03-25T09:52:09.607Z,100062.00
2023-03-25T09:55:21.367Z,100059.28
2023-03-25T09:58:57.742Z,100057.98
2023-03-25T10:02:16.708Z,100054.13
2023-03-25T10:05:56.547Z,100051.20
2023-03-25T10:09:43.344Z,100049.34
2023-03-25T10:13:14.008Z,100042.33
2023-03-25T10:16:53.086Z,100040.08
2023-03-25T10:20:28.685Z,100045.95
2023-03-25T10:23:42.617Z,100032.72
2023-03-25T10:27:08.771Z,100029.17
2023-03-25T10:30:25.079Z,100026.25
2023-03-25T10:33:50.963Z,100017.28
2023-03-25T10:37:06.790Z,100017.23
2023-03-25T10:40:32.382Z,100010.44
2023-03-25T10:43:50.818Z,100002.69
2023-03-25T10:47:20.296Z,100008.15
2023-03-25T10:50:31.176Z,99995.19
2023-03-25T10:53:40.930Z,99995.04
2023-03-25T10:56:51.622Z,99993.97
2023-03-25T11:00:17.097Z,99987.75
2023-03-25T11:03:27.970Z,99990.55
2023-03-25T11:06:35.999Z,99979.02
2023-03-25T11:09:44.862Z,99963.37
2023-03-25T11:12:55.403Z,99962.63
2023-03-25T11:16:01.775Z,99963.73
2023-03-25T11:19:08.404Z,99964.19
2023-03-25T11:22:38.936Z,99953.25
2023-03-25T11:25:52.665Z,99952.68
2023-03-25T11:29:10.441Z,99940.72
2023-03-25T11:32:28.652Z,99940.94
2023-03-25T11:35:41.501Z,99941.47
2023-03-25T11:38:45.995Z,99937.06
2023-03-25T11:41:51.926Z,99942.34
2023-03-25T11:44:58.418Z,99929.06
2023-03-25T11:48:04.673Z,99926.57
2023-03-25T11:51:13.308Z,99927.31
2023-03-25T11:54:27.122Z,99916.55
2023-03-25T11:57:42.114Z,99919.03
2023-03-25T12:00:56.882Z,99913.35
2023-03-25T12:04:03.708Z,99914.42
2023-03-25T12:07:17.648Z,99910.56
2023-03-25T12:10:31.913Z,99913.66
2023-03-25T12:13:59.448Z,99916.16
2023-03-25T12:17:41.455Z,99914.55
2023-03-25T12:21:11.455Z,99918.06
2023-03-25T12:24:30.651Z,99920.28
2023-03-25T12:28:17.242Z,99919.23
2023-03-25T12:31:28.453Z,99922.54
2023-03-25T12:34:48.342Z,99914.67
2023-03-25T12:38:27.539Z,99915.84
2023-03-25T12:41:56.877Z,99919.80
2023-03-25T12:45:29.990Z,99910.82
2023-03-25T12:48:56.687Z,99919.34
2023-03-25T12:52:37.725Z,99915.98
2023-03-25T12:56:11.212Z,99905.47
2023-03-25T12:59:53.789Z,99901.84
2023-03-25T13:03:28.089Z,99894.41
2023-03-25T13:06:58.676Z,99883.31
2023-03-25T13:10:29.361Z,99878.21
2023-03-25T13:13:36.001Z,99863.24
2023-03-25T13:16:44.772Z,99856.02
2023-03-25T13:19:51.311Z,99852.71
2023-03-25T13:23:05.718Z,99862.42
2023-03-25T13:26:26.496Z,99863.92
2023-03-25T13:29:58.628Z,99865.55
2023-03-25T13:33:09.613Z,99859.58
2023-03-25T13:36:45.178Z,99858.68
2023-03-25T13:40:28.851Z,99855.89
2023-03-25T13:43:59.789Z,99852.41
2023-03-25T13:47:11.455Z,99838.80
2023-03-25T13:50:38.476Z,99837.00
2023-03-25T13:53:55.190Z,99823.06
2023-03-25T13:57:26.733Z,99824.19
2023-03-25T14:00:57.081Z,99814.62
2023-03-25T14:04:47.048Z,99806.66
2023-03-25T14:08:08.760Z,99806.02
2023-03-25T14:11:30.935Z,99793.72
2023-03-25T14:14:36.550Z,99793.86
2023-03-25T14:17:42.252Z,99788.27
2023-03-25T14:20:54.818Z,99790.28
2023-03-25T14:24:03.337Z,99786.44
2023-03-25T14:27:14.968Z,99782.19
2023-03-25T14:30:42.727Z,99779.01
2023-03-25T14:34:15.713Z,99779.01
2023-03-25T14:37:38.615Z,99785.89
2023-03-25T14:41:04.109Z,99791.44
2023-03-25T14:44:15.372Z,99790.13
2023-03-25T14:47:44.481Z,99791.94
2023-03-25T14:50:51.589Z,99789.88
2023-03-25T14:54:33.647Z,99787.17
2023-03-25T14:57:42.891Z,99783.33
2023-03-25T15:00:56.121Z,99776.56
2023-03-25T15:04:04.021Z,99781.14
2023-03-25T15:07:13.083Z,99785.33
2023-03-25T15:10:22.672Z,99777.88
2023-03-25T15:13:45.634Z,99786.51
2023-03-25T15:17:05.310Z,99784.12
2023-03-25T15:20:24.582Z,99779.42
2023-03-25T15:24:07.438Z,99773.80
2023-03-25T15:27:38.779Z,99777.50
2023-03-25T15:31:04.769Z,99761.37
2023-03-25T15:34:36.565Z,99764.91
2023-03-25T15:38:03.360Z,99771.13
2023-03-25T15:41:30.734Z,99774.99
2023-03-25T15:45:00.589Z,99774.14
2023-03-25T15:48:32.340Z,99769.78
2023-03-25T15:51:58.158Z,99770.91
2023-03-25T15:55:20.409Z,99770.31
2023-03-25T15:58:40.870Z,99769.05
2023-03-25T16:01:53.157Z,99766.55
2023-03-25T16:05:01.899Z,99761.58
2023-03-25T16:08:08.494Z,99763.84
2023-03-25T16:11:37.850Z,99769.11
2023-03-25T16:14:47.992Z,99778.42
2023-03-25T16:17:55.249Z,99778.02
2023-03-25T16:21:01.319Z,99780.17
2023-03-25T16:24:11.401Z,99779.59
2023-03-25T16:27:28.170Z,99786.44
2023-03-25T16:30:40.840Z,99786.13
2023-03-25T16:33:49.419Z,99795.71
2023-03-25T16:36:57.147Z,99799.34
2023-03-25T16:40:07.132Z,99787.92
2023-03-25T16:43:20.505Z,99793.36
2023-03-25T16:46:26.584Z,99796.05
2023-03-25T16:49:50.699Z,99791.28
2023-03-25T16:52:57.147Z,99795.94
2023-03-25T16:56:04.140Z,99800.63
2023-03-25T16:59:22.904Z,99803.36
2023-03-25T17:02:46.627Z,99798.80
2023-03-25T17:05:55.640Z,99803.05
2023-03-25T17:09:12.512Z,99805.80
2023-03-25T17:12:25.054Z,99797.98
2023-03-25T17:15:32.054Z,99801.03
2023-03-25T17:18:43.890Z,99793.94
2023-03-25T17:21:51.520Z,99788.43
2023-03-25T17:24:57.391Z,99792.38
2023-03-25T17:28:03.112Z,99796.80
2023-03-25T17:31:09.334Z,99791.50
2023-03-25T17:34:27.407Z,99789.29
2023-03-25T17:37:33.654Z,99782.06
2023-03-25T17:40:40.607Z,99786.94
2023-03-25T17:43:48.821Z,99785.33
2023-03-25T17:46:55.936Z,99780.67
2023-03-25T17:50:03.640Z,99786.25
2023-03-25T17:53:10.700Z,99787.09
2023-03-25T17:56:17.474Z,99781.49
2023-03-25T17:59:34.697Z,99789.30
2023-03-25T18:02:43.000Z,99790.75
2023-03-25T18:05:50.481Z,99792.54
2023-03-25T18:08:57.599Z,99794.84
2023-03-25T18:12:06.333Z,99798.56
2023-03-25T18:15:13.572Z,99799.48
2023-03-25T18:18:21.263Z,99798.36
2023-03-25T18:21:29.948Z,99803.23
2023-03-25T18:24:35.048Z,99799.30
2023-03-25T18:27:44.205Z,99802.25
2023-03-25T18:31:11.853Z,99800.25
2023-03-25T18:34:20.045Z,99793.05
2023-03-25T18:37:25.857Z,99784.60
2023-03-25T18:40:35.988Z,99781.41
2023-03-25T18:43:45.296Z,99781.48
2023-03-25T18:46:51.482Z,99782.09
2023-03-25T18:49:57.701Z,99776.16
2023-03-25T18:53:04.966Z,99774.98
2023-03-25T18:56:11.261Z,99778.48
2023-03-25T18:59:17.990Z,99773.92
2023-03-25T19:02:24.555Z,99771.80
2023-03-25T19:05:30.577Z,99773.37
2023-03-25T19:08:37.690Z,99774.41
2023-03-25T19:11:43.889Z,99775.67
2023-03-25T19:14:51.817Z,99764.75
2023-03-25T19:18:01.365Z,99768.42
2023-03-25T19:21:09.728Z,99759.98
2023-03-25T19:24:15.648Z,99760.59
2023-03-25T19:27:21.829Z,99757.59
2023-03-25T19:30:31.869Z,99751.14
2023-03-25T19:33:37.917Z,99751.72
2023-03-25T19:36:42.742Z,99745.67
2023-03-25T19:39:49.758Z,99754.52
2023-03-25T19:42:55.809Z,99749.74
2023-03-25T19:46:02.295Z,99742.98
2023-03-25T19:49:10.859Z,99748.67
2023-03-25T19:52:17.176Z,99754.36
2023-03-25T19:55:23.934Z,99748.32
2023-03-25T19:58:32.244Z,99742.33
2023-03-25T20:01:39.965Z,99747.41
2023-03-25T20:04:49.138Z,99740.55
2023-03-25T20:08:02.184Z,99736.98
2023-03-25T20:11:08.378Z,99740.55
2023-03-25T20:14:16.058Z,99744.35
2023-03-25T20:17:22.504Z,99744.86
2023-03-25T20:20:29.457Z,99740.75
2023-03-25T20:23:37.822Z,99738.86
2023-03-25T20:26:43.918Z,99747.41
2023-03-25T20:29:50.003Z,99737.80
2023-03-25T20:32:56.479Z,99733.89
2023-03-25T20:36:03.866Z,99725.75
2023-03-25T20:39:12.636Z,99723.62
2023-03-25T20:42:18.597Z,99715.45
2023-03-25T20:45:27.114Z,99717.23
2023-03-25T20:48:34.915Z,99713.52
2023-03-25T20:51:43.560Z,99716.98
2023-03-25T20:54:50.057Z,99708.64
2023-03-25T20:57:56.945Z,99711.44
2023-03-25T21:01:05.930Z,99711.33
2023-03-25T21:04:14.420Z,99700.22
2023-03-25T21:07:24.650Z,99700.31
2023-03-25T21:10:30.773Z,99705.53
2023-03-25T21:13:38.885Z,99707.67
2023-03-25T21:16:47.639Z,99703.45
2023-03-25T21:19:57.222Z,99706.19
2023-03-25T21:23:05.744Z,99699.51
2023-03-25T21:26:14.579Z,99704.16
2023-03-25T21:29:20.493Z,99698.34
2023-03-25T21:32:27.695Z,99695.17
2023-03-25T21:35:35.433Z,99693.34
2023-03-25T21:38:41.062Z,99685.83
2023-03-25T21:41:47.143Z,99685.64
2023-03-25T21:44:55.369Z,99677.81
2023-03-25T21:48:02.329Z,99672.94
2023-03-25T21:51:11.394Z,99670.45
2023-03-25T21:54:18.672Z,99666.63
2023-03-25T21:57:24.760Z,99667.42
2023-03-25T22:00:32.912Z,99671.66
2023-03-25T22:03:43.666Z,99663.58
2023-03-25T22:06:49.134Z,99665.48
2023-03-25T22:09:55.690Z,99667.16
2023-03-25T22:13:02.221Z,99664.40
2023-03-25T22:16:11.722Z,99667.92
2023-03-25T22:19:22.570Z,99661.42
2023-03-25T22:22:29.045Z,99663.48
2023-03-25T22:25:37.952Z,99658.38
2023-03-25T22:28:44.596Z,99660.59
2023-03-25T22:31:50.625Z,99657.34
2023-03-25T22:34:57.371Z,99657.66
2023-03-25T22:38:04.227Z,99662.36
2023-03-25T22:41:10.858Z,99661.05
2023-03-25T22:44:17.289Z,99646.08
2023-03-25T22:47:24.704Z,99650.91
2023-03-25T22:50:31.335Z,99653.53
2023-03-25T22:53:40.071Z,99652.41
2023-03-25T22:56:45.410Z,99651.73
2023-03-25T22:59:52.281Z,99649.70
2023-03-25T23:02:54.193Z,99649.89
2023-03-25T23:06:13.564Z,99653.86
2023-03-25T23:09:24.165Z,99657.28
2023-03-25T23:12:36.077Z,99661.56
2023-03-25T23:15:43.449Z,99660.73
2023-03-25T23:18:49.358Z,99653.56
2023-03-25T23:21:55.288Z,99651.02
2023-03-25T23:25:02.820Z,99648.16
2023-03-25T23:28:08.618Z,99642.52
2023-03-25T23:31:14.932Z,99646.48
2023-03-25T23:34:22.691Z,99648.78
2023-03-25T23:37:28.372Z,99641.79
2023-03-25T23:40:35.579Z,99633.11
2023-03-25T23:43:41.718Z,99623.12
2023-03-25T23:46:48.969Z,99610.91
2023-03-25T23:49:55.792Z,99601.92
2023-03-25T23:53:04.184Z,99601.42
2023-03-25T23:56:09.723Z,99599.42
2023-03-25T23:59:15.845Z,99594.30
